Time,TemperatureF,DewpointF,PressureIn,WindDirection,WindDirectionDegrees,WindSpeedMPH,WindSpeedGustMPH,Humidity,HourlyPrecipIn,Conditions,Clouds,dailyrainin,SoftwareType,DateUTC
2013-11-29 00:01:00,30.4,15.2,30.47,WSW,248,0.0,0.0,49,0.00,,,0.00,WSDL version 423,2013-11-29 06:01:00,
2013-11-29 00:06:00,30.4,15.2,30.47,WSW,248,0.0,0.0,49,0.00,,,0.00,WSDL version 423,2013-11-29 06:06:00,
2013-11-29 00:15:00,30.1,15.4,30.47,WSW,248,0.0,0.0,50,0.00,,,0.00,WSDL version 423,2013-11-29 06:15:00,
2013-11-29 00:20:00,30.0,15.3,30.47,WSW,248,0.0,0.0,50,0.00,,,0.00,WSDL version 423,2013-11-29 06:20:00,
2013-11-29 00:25:00,29.9,15.2,30.47,WSW,248,0.0,0.0,50,0.00,,,0.00,WSDL version 423,2013-11-29 06:25:00,
2013-11-29 00:30:00,29.9,15.2,30.47,WSW,248,0.0,0.0,50,0.00,,,0.00,WSDL version 423,2013-11-29 06:30:00,
2013-11-29 00:35:00,30.0,15.3,30.47,WSW,248,0.0,0.0,50,0.00,,,0.00,WSDL version 423,2013-11-29 06:35:00,
2013-11-29 00:40:00,30.1,15.4,30.47,WSW,248,0.0,0.0,50,0.00,,,0.00,WSDL version 423,2013-11-29 06:40:00,
2013-11-29 00:45:00,30.2,15.5,30.47,WSW,248,0.0,0.0,50,0.00,,,0.00,WSDL version 423,2013-11-29 06:45:00,
2013-11-29 00:50:00,30.2,15.5,30.47,WSW,248,0.0,0.0,50,0.00,,,0.00,WSDL version 423,2013-11-29 06:50:00,
2013-11-29 00:55:00,30.2,15.5,30.47,WSW,248,0.0,0.0,50,0.00,,,0.00,WSDL version 423,2013-11-29 06:55:00,
2013-11-29 01:00:00,30.2,15.5,30.47,WSW,248,0.0,0.0,50,0.00,,,0.00,WSDL version 423,2013-11-29 07:00:00,
2013-11-29 01:05:00,30.0,15.3,30.47,WSW,248,0.0,0.0,50,0.00,,,0.00,WSDL version 423,2013-11-29 07:05:00,
2013-11-29 01:10:00,29.9,15.3,30.47,WSW,248,0.0,0.0,51,0.00,,,0.00,WSDL version 423,2013-11-29 07:10:00,
2013-11-29 01:15:00,29.8,15.5,30.47,WSW,248,0.0,0.0,51,0.00,,,0.00,WSDL version 423,2013-11-29 07:15:00,
2013-11-29 01:20:00,29.8,15.5,30.47,WSW,248,0.0,0.0,51,0.00,,,0.00,WSDL version 423,2013-11-29 07:20:00,
2013-11-29 01:25:00,29.8,15.5,30.47,WSW,248,0.0,0.0,51,0.00,,,0.00,WSDL version 423,2013-11-29 07:25:00,
2013-11-29 01:30:00,29.8,15.5,30.47,WSW,248,0.0,0.0,51,0.00,,,0.00,WSDL version 423,2013-11-29 07:30:00,
2013-11-29 01:35:00,29.7,15.4,30.47,WSW,248,0.0,0.0,51,0.00,,,0.00,WSDL version 423,2013-11-29 07:35:00,
2013-11-29 01:40:00,29.5,15.4,30.47,WSW,248,0.0,0.0,51,0.00,,,0.00,WSDL version 423,2013-11-29 07:40:00,
2013-11-29 01:45:00,29.4,15.3,30.47,WSW,248,0.7,1.1,52,0.00,,,0.00,WSDL version 423,2013-11-29 07:45:00,
2013-11-29 01:50:00,29.3,15.4,30.47,WSW,248,0.0,1.1,52,0.00,,,0.00,WSDL version 423,2013-11-29 07:50:00,
2013-11-29 01:55:00,29.3,15.3,30.47,WSW,248,0.0,0.9,52,0.00,,,0.00,WSDL version 423,2013-11-29 07:55:00,
2013-11-29 02:00:00,29.2,15.4,30.47,WSW,248,0.0,0.9,52,0.00,,,0.00,WSDL version 423,2013-11-29 08:00:00,
2013-11-29 02:05:00,29.1,15.5,30.47,WSW,248,0.2,1.3,52,0.00,,,0.00,WSDL version 423,2013-11-29 08:05:00,
2013-11-29 02:10:00,29.1,15.5,30.47,WSW,248,0.0,1.3,52,0.00,,,0.00,WSDL version 423,2013-11-29 08:10:00,
2013-11-29 02:15:00,28.9,15.4,30.47,WSW,248,0.0,0.0,53,0.00,,,0.00,WSDL version 423,2013-11-29 08:15:00,
2013-11-29 02:20:00,28.9,15.7,30.47,WSW,248,0.0,0.0,53,0.00,,,0.00,WSDL version 423,2013-11-29 08:20:00,
2013-11-29 02:25:00,28.9,15.7,30.50,WSW,248,0.0,0.0,53,0.00,,,0.00,WSDL version 423,2013-11-29 08:25:00,
2013-11-29 02:30:00,28.8,15.6,30.50,WSW,248,0.0,0.0,53,0.00,,,0.00,WSDL version 423,2013-11-29 08:30:00,
2013-11-29 02:35:00,28.7,15.5,30.50,WSW,248,0.0,0.0,53,0.00,,,0.00,WSDL version 423,2013-11-29 08:35:00,
2013-11-29 02:40:00,28.7,15.6,30.50,WSW,248,0.0,0.0,54,0.00,,,0.00,WSDL version 423,2013-11-29 08:40:00,
2013-11-29 02:45:00,28.6,15.7,30.50,WSW,248,0.0,0.0,54,0.00,,,0.00,WSDL version 423,2013-11-29 08:45:00,
2013-11-29 02:50:00,28.6,15.8,30.50,WSW,248,0.0,0.0,55,0.00,,,0.00,WSDL version 423,2013-11-29 08:50:00,
2013-11-29 02:55:00,28.6,16.1,30.50,WSW,248,0.0,0.0,55,0.00,,,0.00,WSDL version 423,2013-11-29 08:55:00,
2013-11-29 03:00:00,28.6,16.1,30.50,WSW,248,0.0,0.0,55,0.00,,,0.00,WSDL version 423,2013-11-29 09:00:00,
2013-11-29 03:05:00,28.6,16.1,30.50,WSW,248,0.0,0.0,55,0.00,,,0.00,WSDL version 423,2013-11-29 09:05:00,
2013-11-29 03:10:00,28.5,16.0,30.50,WSW,248,0.0,0.0,55,0.00,,,0.00,WSDL version 423,2013-11-29 09:10:00,
2013-11-29 03:15:00,28.3,15.9,30.50,WSW,248,0.0,0.0,55,0.00,,,0.00,WSDL version 423,2013-11-29 09:15:00,
2013-11-29 03:20:00,28.1,15.9,30.50,WSW,248,0.0,0.0,56,0.00,,,0.00,WSDL version 423,2013-11-29 09:20:00,
2013-11-29 03:25:00,28.0,15.8,30.50,WSW,248,0.0,0.0,56,0.00,,,0.00,WSDL version 423,2013-11-29 09:25:00,
2013-11-29 03:30:00,27.8,15.7,30.50,WSW,248,0.0,0.0,56,0.00,,,0.00,WSDL version 423,2013-11-29 09:30:00,
2013-11-29 03:35:00,27.7,15.5,30.50,WSW,248,0.0,0.0,56,0.00,,,0.00,WSDL version 423,2013-11-29 09:35:00,
2013-11-29 03:40:00,27.5,15.4,30.50,WSW,248,0.0,0.0,56,0.00,,,0.00,WSDL version 423,2013-11-29 09:40:00,
2013-11-29 03:45:00,27.5,15.4,30.50,WSW,248,0.0,0.0,56,0.00,,,0.00,WSDL version 423,2013-11-29 09:45:00,
2013-11-29 03:50:00,27.5,15.7,30.50,WSW,248,0.0,0.0,57,0.00,,,0.00,WSDL version 423,2013-11-29 09:50:00,
2013-11-29 03:55:00,27.4,15.6,30.50,WSW,248,0.0,0.0,57,0.00,,,0.00,WSDL version 423,2013-11-29 09:55:00,
2013-11-29 04:00:00,27.3,15.5,30.50,WSW,248,0.0,0.0,57,0.00,,,0.00,WSDL version 423,2013-11-29 10:00:00,
2013-11-29 04:05:00,27.3,15.6,30.50,WSW,248,0.0,0.0,58,0.00,,,0.00,WSDL version 423,2013-11-29 10:05:00,
2013-11-29 04:10:00,27.3,15.9,30.50,WSW,248,0.0,0.0,58,0.00,,,0.00,WSDL version 423,2013-11-29 10:10:00,
2013-11-29 04:15:00,27.1,15.7,30.50,WSW,248,0.0,0.0,58,0.00,,,0.00,WSDL version 423,2013-11-29 10:15:00,
2013-11-29 04:20:00,27.1,15.7,30.50,WSW,248,0.0,0.0,58,0.00,,,0.00,WSDL version 423,2013-11-29 10:20:00,
2013-11-29 04:25:00,27.1,15.7,30.50,WSW,248,0.0,0.0,58,0.00,,,0.00,WSDL version 423,2013-11-29 10:25:00,
2013-11-29 04:30:00,27.1,15.7,30.50,WSW,248,0.0,0.0,58,0.00,,,0.00,WSDL version 423,2013-11-29 10:30:00,
2013-11-29 04:35:00,27.0,15.6,30.50,WSW,248,0.0,0.0,58,0.00,,,0.00,WSDL version 423,2013-11-29 10:35:00,
2013-11-29 04:40:00,27.1,15.7,30.50,WSW,248,0.0,0.0,58,0.00,,,0.00,WSDL version 423,2013-11-29 10:40:00,
2013-11-29 04:45:00,27.1,16.0,30.50,WSW,248,0.0,0.0,59,0.00,,,0.00,WSDL version 423,2013-11-29 10:45:00,
2013-11-29 04:50:00,27.1,16.0,30.50,WSW,248,0.0,0.0,59,0.00,,,0.00,WSDL version 423,2013-11-29 10:50:00,
2013-11-29 04:55:00,27.1,16.0,30.50,WSW,248,0.0,0.0,59,0.00,,,0.00,WSDL version 423,2013-11-29 10:55:00,
2013-11-29 05:00:00,26.9,15.8,30.50,SW,225,0.0,1.1,59,0.00,,,0.00,WSDL version 423,2013-11-29 11:00:00,
2013-11-29 05:05:00,26.9,15.8,30.50,SW,225,0.0,1.1,59,0.00,,,0.00,WSDL version 423,2013-11-29 11:05:00,
2013-11-29 05:10:00,26.9,15.8,30.53,SW,225,0.0,0.0,59,0.00,,,0.00,WSDL version 423,2013-11-29 11:10:00,
2013-11-29 05:15:00,26.9,16.0,30.53,SW,225,0.0,0.0,60,0.00,,,0.00,WSDL version 423,2013-11-29 11:15:00,
2013-11-29 05:20:00,26.9,16.1,30.53,SW,225,1.0,2.0,60,0.00,,,0.00,WSDL version 423,2013-11-29 11:20:00,
2013-11-29 05:25:00,27.1,16.3,30.53,SW,225,0.4,2.0,60,0.00,,,0.00,WSDL version 423,2013-11-29 11:25:00,
2013-11-29 05:30:00,26.9,16.1,30.53,SW,225,0.0,1.6,60,0.00,,,0.00,WSDL version 423,2013-11-29 11:30:00,
2013-11-29 05:35:00,26.9,16.1,30.53,SW,225,0.0,0.0,60,0.00,,,0.00,WSDL version 423,2013-11-29 11:35:00,
2013-11-29 05:40:00,26.9,16.1,30.53,SW,225,0.0,0.0,60,0.00,,,0.00,WSDL version 423,2013-11-29 11:40:00,
2013-11-29 05:45:00,26.8,16.0,30.53,SW,225,0.0,0.0,60,0.00,,,0.00,WSDL version 423,2013-11-29 11:45:00,
2013-11-29 05:50:00,26.6,15.8,30.53,SW,225,0.0,0.0,60,0.00,,,0.00,WSDL version 423,2013-11-29 11:50:00,
2013-11-29 05:55:00,26.6,16.2,30.53,WSW,248,0.0,0.0,61,0.00,,,0.00,WSDL version 423,2013-11-29 11:55:00,
2013-11-29 06:00:00,26.8,16.3,30.53,WSW,248,0.0,0.0,61,0.00,,,0.00,WSDL version 423,2013-11-29 12:00:00,
2013-11-29 06:05:00,26.7,16.2,30.53,WSW,248,0.0,0.0,61,0.00,,,0.00,WSDL version 423,2013-11-29 12:05:00,
2013-11-29 06:10:00,26.3,15.8,30.53,WSW,248,0.0,0.0,61,0.00,,,0.00,WSDL version 423,2013-11-29 12:10:00,
2013-11-29 06:15:00,26.0,15.6,30.53,WSW,248,0.0,0.0,61,0.00,,,0.00,WSDL version 423,2013-11-29 12:15:00,
2013-11-29 06:20:00,26.0,15.9,30.53,WSW,248,0.0,0.0,62,0.00,,,0.00,WSDL version 423,2013-11-29 12:20:00,
2013-11-29 06:25:00,25.9,15.7,30.53,WSW,248,0.0,0.0,62,0.00,,,0.00,WSDL version 423,2013-11-29 12:25:00,
2013-11-29 06:30:00,25.9,15.7,30.53,WSW,248,0.0,0.0,62,0.00,,,0.00,WSDL version 423,2013-11-29 12:30:00,
2013-11-29 06:35:00,25.9,15.9,30.53,WSW,248,0.0,0.0,62,0.00,,,0.00,WSDL version 423,2013-11-29 12:35:00,
2013-11-29 06:40:00,25.9,16.0,30.53,WSW,250,0.2,1.3,62,0.00,,,0.00,WSDL version 423,2013-11-29 12:40:00,
2013-11-29 06:45:00,26.4,16.9,30.53,West,270,1.4,2.0,65,0.00,,,0.00,WSDL version 423,2013-11-29 12:45:00,
2013-11-29 06:50:00,27.0,18.6,30.53,West,270,0.2,2.0,67,0.00,,,0.00,WSDL version 423,2013-11-29 12:50:00,
2013-11-29 06:55:00,26.9,18.3,30.53,West,270,0.0,1.6,66,0.00,,,0.00,WSDL version 423,2013-11-29 12:55:00,
2013-11-29 07:00:00,26.4,17.1,30.53,West,270,0.0,0.0,64,0.00,,,0.00,WSDL version 423,2013-11-29 13:00:00,
2013-11-29 07:05:00,26.5,17.3,30.53,West,270,0.0,0.0,65,0.00,,,0.00,WSDL version 423,2013-11-29 13:05:00,
2013-11-29 07:10:00,26.9,18.0,30.56,West,270,0.0,0.0,66,0.00,,,0.00,WSDL version 423,2013-11-29 13:10:00,
2013-11-29 07:15:00,27.3,18.9,30.56,West,270,0.3,2.0,68,0.00,,,0.00,WSDL version 423,2013-11-29 13:15:00,
2013-11-29 07:20:00,27.8,20.2,30.56,West,270,0.0,2.0,70,0.00,,,0.00,WSDL version 423,2013-11-29 13:20:00,
2013-11-29 07:25:00,28.3,20.7,30.56,West,270,0.0,2.0,70,0.00,,,0.00,WSDL version 423,2013-11-29 13:25:00,
2013-11-29 07:30:00,29.0,21.3,30.56,West,270,0.2,1.3,70,0.00,,,0.00,WSDL version 423,2013-11-29 13:30:00,
2013-11-29 07:35:00,30.0,22.5,30.56,West,270,0.5,1.6,71,0.00,,,0.00,WSDL version 423,2013-11-29 13:35:00,
2013-11-29 07:40:00,31.0,23.7,30.56,West,270,0.2,1.6,72,0.00,,,0.00,WSDL version 423,2013-11-29 13:40:00,
2013-11-29 07:45:00,31.7,24.6,30.56,WNW,293,1.0,1.6,72,0.00,,,0.00,WSDL version 423,2013-11-29 13:45:00,
2013-11-29 07:50:00,32.6,24.8,30.56,WNW,293,1.0,2.0,72,0.00,,,0.00,WSDL version 423,2013-11-29 13:50:00,
2013-11-29 07:55:00,33.6,25.7,30.56,WNW,293,1.1,2.0,72,0.00,,,0.00,WSDL version 423,2013-11-29 13:55:00,
2013-11-29 08:00:00,34.6,26.8,30.56,WNW,293,0.0,1.6,73,0.00,,,0.00,WSDL version 423,2013-11-29 14:00:00,
2013-11-29 08:05:00,35.8,28.1,30.56,WNW,293,0.3,1.6,72,0.00,,,0.00,WSDL version 423,2013-11-29 14:05:00,
2013-11-29 08:10:00,36.9,28.9,30.56,NW,318,0.2,2.9,72,0.00,,,0.00,WSDL version 423,2013-11-29 14:10:00,
2013-11-29 08:15:00,38.1,29.5,30.56,NE,45,1.0,2.9,70,0.00,,,0.00,WSDL version 423,2013-11-29 14:15:00,
2013-11-29 08:20:00,39.3,29.7,30.56,NE,48,1.1,2.5,67,0.00,,,0.00,WSDL version 423,2013-11-29 14:20:00,
2013-11-29 08:28:00,40.6,28.4,30.56,ENE,65,0.5,3.6,62,0.00,,,0.00,WSDL version 423,2013-11-29 14:28:00,
2013-11-29 08:33:00,41.3,28.4,30.56,NE,37,2.3,3.1,59,0.00,,,0.00,WSDL version 423,2013-11-29 14:33:00,
2013-11-29 08:38:00,42.0,28.1,30.56,NNW,345,1.8,3.4,57,0.00,,,0.00,WSDL version 423,2013-11-29 14:38:00,
2013-11-29 08:43:00,42.6,28.1,30.56,ENE,68,1.1,3.4,56,0.00,,,0.00,WSDL version 423,2013-11-29 14:43:00,
2013-11-29 08:48:00,43.8,28.7,30.56,North,11,0.7,3.1,54,0.00,,,0.00,WSDL version 423,2013-11-29 14:48:00,
2013-11-29 08:53:00,44.7,28.7,30.56,NNE,18,0.5,3.6,53,0.00,,,0.00,WSDL version 423,2013-11-29 14:53:00,
2013-11-29 08:58:00,45.8,29.6,30.56,NW,315,1.3,3.6,52,0.00,,,0.00,WSDL version 423,2013-11-29 14:58:00,
2013-11-29 09:03:00,46.5,28.9,30.56,North,354,1.3,2.5,49,0.00,,,0.00,WSDL version 423,2013-11-29 15:03:00,
2013-11-29 09:08:00,46.9,27.7,30.56,NE,39,1.1,3.6,47,0.00,,,0.00,WSDL version 423,2013-11-29 15:08:00,
2013-11-29 09:13:00,47.4,27.5,30.59,NE,34,1.0,3.6,45,0.00,,,0.00,WSDL version 423,2013-11-29 15:13:00,
2013-11-29 10:07:00,52.9,25.3,30.56,East,96,1.5,3.4,34,0.00,,,0.00,WSDL version 423,2013-11-29 16:07:00,
2013-11-29 10:12:00,52.6,24.9,30.56,East,90,1.9,3.4,33,0.00,,,0.00,WSDL version 423,2013-11-29 16:12:00,
2013-11-29 10:17:00,51.9,24.4,30.56,East,83,1.9,3.4,34,0.00,,,0.00,WSDL version 423,2013-11-29 16:17:00,
2013-11-29 10:22:00,52.2,24.7,30.56,East,87,1.7,3.4,34,0.00,,,0.00,WSDL version 423,2013-11-29 16:22:00,
2013-11-29 10:27:00,52.4,24.8,30.56,East,90,1.3,2.9,34,0.00,,,0.00,WSDL version 423,2013-11-29 16:27:00,
2013-11-29 10:32:00,52.6,24.8,30.56,East,83,1.4,2.9,34,0.00,,,0.00,WSDL version 423,2013-11-29 16:32:00,
2013-11-29 10:37:00,53.5,25.5,30.56,NNE,15,1.3,2.9,34,0.00,,,0.00,WSDL version 423,2013-11-29 16:37:00,
2013-11-29 10:42:00,54.8,26.5,30.56,NE,39,0.8,2.5,34,0.00,,,0.00,WSDL version 423,2013-11-29 16:42:00,
2013-11-29 10:47:00,55.5,27.0,30.56,East,93,1.3,2.2,33,0.00,,,0.00,WSDL version 423,2013-11-29 16:47:00,
2013-11-29 10:52:00,54.9,25.7,30.56,East,85,1.8,4.0,32,0.00,,,0.00,WSDL version 423,2013-11-29 16:52:00,
2013-11-29 10:57:00,54.4,25.2,30.56,SE,135,1.0,4.0,32,0.00,,,0.00,WSDL version 423,2013-11-29 16:57:00,
2013-11-29 11:02:00,54.7,25.4,30.56,ESE,105,1.5,3.6,32,0.00,,,0.00,WSDL version 423,2013-11-29 17:02:00,
2013-11-29 11:07:00,55.0,25.7,30.56,ENE,73,1.8,3.1,32,0.00,,,0.00,WSDL version 423,2013-11-29 17:07:00,
2013-11-29 11:17:00,55.9,24.9,30.56,East,98,2.1,3.6,29,0.00,,,0.00,WSDL version 423,2013-11-29 17:17:00,
2013-11-29 11:22:00,56.0,24.2,30.56,East,93,1.7,3.6,29,0.00,,,0.00,WSDL version 423,2013-11-29 17:22:00,
2013-11-29 11:27:00,55.9,24.1,30.53,ESE,105,0.6,3.6,29,0.00,,,0.00,WSDL version 423,2013-11-29 17:27:00,
2013-11-29 11:32:00,56.3,24.5,30.53,ESE,113,2.1,3.6,29,0.00,,,0.00,WSDL version 423,2013-11-29 17:32:00,
2013-11-29 11:37:00,56.5,24.7,30.53,East,93,1.1,3.1,29,0.00,,,0.00,WSDL version 423,2013-11-29 17:37:00,
2013-11-29 11:42:00,56.7,23.1,30.53,ESE,110,2.3,3.4,26,0.00,,,0.00,WSDL version 423,2013-11-29 17:42:00,
2013-11-29 11:47:00,56.9,22.8,30.53,ENE,70,0.9,3.4,26,0.00,,,0.00,WSDL version 423,2013-11-29 17:47:00,
2013-11-29 11:52:00,57.1,22.6,30.53,NE,53,1.7,3.8,26,0.00,,,0.00,WSDL version 423,2013-11-29 17:52:00,
2013-11-29 11:57:00,57.6,23.0,30.53,ENE,68,1.5,4.3,26,0.00,,,0.00,WSDL version 423,2013-11-29 17:57:00,
2013-11-29 12:02:00,58.0,23.3,30.53,ESE,120,1.1,4.3,26,0.00,,,0.00,WSDL version 423,2013-11-29 18:02:00,
2013-11-29 12:07:00,58.0,23.4,30.53,East,90,1.0,3.4,26,0.00,,,0.00,WSDL version 423,2013-11-29 18:07:00,
2013-11-29 12:12:00,58.6,23.9,30.53,North,360,1.6,2.7,26,0.00,,,0.00,WSDL version 423,2013-11-29 18:12:00,
2013-11-29 12:17:00,59.2,24.4,30.53,ESE,105,1.9,3.8,26,0.00,,,0.00,WSDL version 423,2013-11-29 18:17:00,
2013-11-29 12:22:00,58.6,23.8,30.53,SSE,155,0.0,3.8,26,0.00,,,0.00,WSDL version 423,2013-11-29 18:22:00,
2013-11-29 12:27:00,58.9,24.1,30.50,East,83,0.0,2.2,26,0.00,,,0.00,WSDL version 423,2013-11-29 18:27:00,
2013-11-29 12:32:00,59.3,24.4,30.50,NNW,344,1.5,3.6,26,0.00,,,0.00,WSDL version 423,2013-11-29 18:32:00,
2013-11-29 12:37:00,59.3,24.4,30.50,East,93,1.0,3.6,26,0.00,,,0.00,WSDL version 423,2013-11-29 18:37:00,
2013-11-29 12:42:00,59.1,24.2,30.53,South,190,1.2,3.4,26,0.00,,,0.00,WSDL version 423,2013-11-29 18:42:00,
2013-11-29 12:47:00,59.3,24.4,30.53,ENE,78,1.1,2.9,26,0.00,,,0.00,WSDL version 423,2013-11-29 18:47:00,
2013-11-29 12:52:00,59.2,24.4,30.53,ESE,113,1.1,2.9,26,0.00,,,0.00,WSDL version 423,2013-11-29 18:52:00,
2013-11-29 12:57:00,58.9,23.6,30.50,NE,34,1.7,4.0,23,0.00,,,0.00,WSDL version 423,2013-11-29 18:57:00,
2013-11-29 13:02:00,59.3,24.4,30.50,ENE,75,0.7,4.0,26,0.00,,,0.00,WSDL version 423,2013-11-29 19:02:00,
2013-11-29 13:07:00,59.4,22.6,30.50,SSE,161,0.6,3.4,23,0.00,,,0.00,WSDL version 423,2013-11-29 19:07:00,
2013-11-29 13:12:00,59.3,21.5,30.50,SE,145,1.3,2.5,23,0.00,,,0.00,WSDL version 423,2013-11-29 19:12:00,
2013-11-29 13:17:00,59.3,21.5,30.50,SSW,208,1.5,2.9,23,0.00,,,0.00,WSDL version 423,2013-11-29 19:17:00,
2013-11-29 13:22:00,59.7,21.9,30.50,West,270,0.6,2.9,23,0.00,,,0.00,WSDL version 423,2013-11-29 19:22:00,
2013-11-29 13:27:00,60.4,22.4,30.50,NNW,338,1.3,4.0,23,0.00,,,0.00,WSDL version 423,2013-11-29 19:27:00,
2013-11-29 13:32:00,60.2,22.3,30.50,South,190,0.0,4.0,23,0.00,,,0.00,WSDL version 423,2013-11-29 19:32:00,
2013-11-29 13:37:00,59.8,22.0,30.50,ESE,113,1.0,2.5,23,0.00,,,0.00,WSDL version 423,2013-11-29 19:37:00,
2013-11-29 13:42:00,58.9,21.2,30.50,ESE,113,0.6,2.5,23,0.00,,,0.00,WSDL version 423,2013-11-29 19:42:00,
2013-11-29 13:47:00,58.6,20.9,30.50,ESE,118,1.2,2.9,23,0.00,,,0.00,WSDL version 423,2013-11-29 19:47:00,
2013-11-29 13:52:00,58.0,20.5,30.50,ESE,113,0.6,2.9,23,0.00,,,0.00,WSDL version 423,2013-11-29 19:52:00,
2013-11-29 13:57:00,58.1,20.5,30.50,SSW,205,2.0,3.1,23,0.00,,,0.00,WSDL version 423,2013-11-29 19:57:00,
2013-11-29 14:02:00,58.6,20.9,30.50,SSW,210,0.6,3.1,23,0.00,,,0.00,WSDL version 423,2013-11-29 20:02:00,
2013-11-29 14:07:00,58.7,21.0,30.50,ESE,122,0.0,2.7,23,0.00,,,0.00,WSDL version 423,2013-11-29 20:07:00,
2013-11-29 14:12:00,58.3,20.7,30.47,NE,50,1.3,2.7,23,0.00,,,0.00,WSDL version 423,2013-11-29 20:12:00,
2013-11-29 14:17:00,57.9,20.5,30.47,NE,45,0.2,2.7,24,0.00,,,0.00,WSDL version 423,2013-11-29 20:17:00,
2013-11-29 16:08:00,53.6,18.7,30.47,NW,315,0.0,1.1,25,0.00,,,0.00,WSDL version 423,2013-11-29 22:08:00,
2013-11-29 16:20:00,53.1,18.2,30.47,NW,315,0.0,1.1,25,0.00,,,0.00,WSDL version 423,2013-11-29 22:20:00,
2013-11-29 16:25:00,52.9,18.4,30.47,NW,315,0.0,1.1,27,0.00,,,0.00,WSDL version 423,2013-11-29 22:25:00,
2013-11-29 16:30:00,52.6,19.6,30.47,NW,315,0.0,1.3,27,0.00,,,0.00,WSDL version 423,2013-11-29 22:30:00,
2013-11-29 16:35:00,52.2,19.2,30.47,NW,315,0.4,2.2,27,0.00,,,0.00,WSDL version 423,2013-11-29 22:35:00,
2013-11-29 16:40:00,51.8,18.9,30.47,NW,315,0.4,2.7,27,0.00,,,0.00,WSDL version 423,2013-11-29 22:40:00,
2013-11-29 16:45:00,51.5,18.7,30.47,NW,315,0.3,2.7,27,0.00,,,0.00,WSDL version 423,2013-11-29 22:45:00,
2013-11-29 16:53:00,51.2,18.4,30.47,NW,315,0.0,1.1,27,0.00,,,0.00,WSDL version 423,2013-11-29 22:53:00,
2013-11-29 16:59:00,50.9,18.1,30.47,NW,315,0.0,1.1,27,0.00,,,0.00,WSDL version 423,2013-11-29 22:59:00,
2013-11-29 17:05:00,50.5,18.5,30.47,NW,315,0.0,0.0,28,0.00,,,0.00,WSDL version 423,2013-11-29 23:05:00,
2013-11-29 17:09:00,50.2,18.3,30.47,NW,315,0.0,0.0,28,0.00,,,0.00,WSDL version 423,2013-11-29 23:09:00,
2013-11-29 17:18:00,49.7,17.9,30.47,NW,315,0.0,0.0,28,0.00,,,0.00,WSDL version 423,2013-11-29 23:18:00,
2013-11-29 17:23:00,49.4,17.6,30.47,NW,315,0.0,0.0,28,0.00,,,0.00,WSDL version 423,2013-11-29 23:23:00,
2013-11-29 17:28:00,49.2,17.5,30.47,NW,315,0.0,0.0,28,0.00,,,0.00,WSDL version 423,2013-11-29 23:28:00,
2013-11-29 17:33:00,48.9,17.2,30.47,NW,315,0.0,0.0,28,0.00,,,0.00,WSDL version 423,2013-11-29 23:33:00,
2013-11-29 17:49:00,47.8,16.3,30.47,NW,315,0.0,0.0,28,0.00,,,0.00,WSDL version 423,2013-11-29 23:49:00,
2013-11-29 17:54:00,47.6,16.1,30.47,NW,315,0.0,0.0,28,0.00,,,0.00,WSDL version 423,2013-11-29 23:54:00,
2013-11-29 17:59:00,47.3,15.8,30.47,NW,315,0.0,0.0,28,0.00,,,0.00,WSDL version 423,2013-11-29 23:59:00,
2013-11-29 18:04:00,47.1,15.7,30.47,NW,315,0.0,0.0,28,0.00,,,0.00,WSDL version 423,2013-11-30 00:04:00,
2013-11-29 18:09:00,47.0,16.6,30.47,NW,315,0.0,0.0,31,0.00,,,0.00,WSDL version 423,2013-11-30 00:09:00,
2013-11-29 18:19:00,46.5,17.5,30.47,NW,315,0.0,0.0,31,0.00,,,0.00,WSDL version 423,2013-11-30 00:19:00,
2013-11-29 18:24:00,46.2,17.3,30.47,NW,315,0.0,0.0,31,0.00,,,0.00,WSDL version 423,2013-11-30 00:24:00,
2013-11-29 18:29:00,46.1,17.1,30.45,NW,315,0.0,0.0,31,0.00,,,0.00,WSDL version 423,2013-11-30 00:29:00,
2013-11-29 18:34:00,46.0,17.0,30.45,NW,315,0.0,0.0,31,0.00,,,0.00,WSDL version 423,2013-11-30 00:34:00,
2013-11-29 18:39:00,45.8,18.0,30.45,NW,315,0.0,0.0,34,0.00,,,0.00,WSDL version 423,2013-11-30 00:39:00,
2013-11-29 18:44:00,45.6,18.9,30.45,NW,315,0.0,0.0,34,0.00,,,0.00,WSDL version 423,2013-11-30 00:44:00,
2013-11-29 18:49:00,45.5,18.7,30.45,NW,315,0.0,0.0,34,0.00,,,0.00,WSDL version 423,2013-11-30 00:49:00,
2013-11-29 18:54:00,45.4,18.7,30.45,NW,315,0.0,0.0,34,0.00,,,0.00,WSDL version 423,2013-11-30 00:54:00,
2013-11-29 19:04:00,45.3,18.6,30.47,NW,315,0.0,0.0,34,0.00,,,0.00,WSDL version 423,2013-11-30 01:04:00,
2013-11-29 19:09:00,45.1,18.4,30.47,NW,315,0.0,0.0,34,0.00,,,0.00,WSDL version 423,2013-11-30 01:09:00,
2013-11-29 19:14:00,44.7,18.1,30.45,NW,315,0.0,0.0,34,0.00,,,0.00,WSDL version 423,2013-11-30 01:14:00,
2013-11-29 19:19:00,44.4,18.5,30.45,NW,315,0.0,0.0,35,0.00,,,0.00,WSDL version 423,2013-11-30 01:19:00,
2013-11-29 19:24:00,44.2,18.3,30.45,NW,315,0.0,0.0,35,0.00,,,0.00,WSDL version 423,2013-11-30 01:24:00,
2013-11-29 19:29:00,44.0,18.1,30.45,NW,315,0.0,0.9,35,0.00,,,0.00,WSDL version 423,2013-11-30 01:29:00,
2013-11-29 19:34:00,44.0,18.1,30.45,NW,315,0.0,0.9,35,0.00,,,0.00,WSDL version 423,2013-11-30 01:34:00,
2013-11-29 19:39:00,44.0,18.1,30.45,NNW,332,0.0,0.9,35,0.00,,,0.00,WSDL version 423,2013-11-30 01:39:00,
2013-11-29 19:44:00,43.9,18.0,30.47,East,90,0.0,0.9,35,0.00,,,0.00,WSDL version 423,2013-11-30 01:44:00,
2013-11-29 19:49:00,43.7,17.9,30.47,East,90,0.0,0.0,35,0.00,,,0.00,WSDL version 423,2013-11-30 01:49:00,
2013-11-29 19:54:00,43.7,17.8,30.47,East,90,0.0,1.3,35,0.00,,,0.00,WSDL version 423,2013-11-30 01:54:00,
2013-11-29 19:59:00,43.5,18.3,30.45,East,90,0.8,1.6,36,0.00,,,0.00,WSDL version 423,2013-11-30 01:59:00,
2013-11-29 20:04:00,43.5,18.4,30.45,East,90,0.0,1.6,36,0.00,,,0.00,WSDL version 423,2013-11-30 02:04:00,
2013-11-29 20:09:00,43.5,18.3,30.45,East,90,0.5,1.6,36,0.00,,,0.00,WSDL version 423,2013-11-30 02:09:00,
2013-11-29 20:14:00,43.5,18.6,30.45,East,90,0.2,1.6,37,0.00,,,0.00,WSDL version 423,2013-11-30 02:14:00,
2013-11-29 20:19:00,43.4,18.8,30.45,East,90,0.4,1.6,37,0.00,,,0.00,WSDL version 423,2013-11-30 02:19:00,
2013-11-29 20:24:00,43.3,18.7,30.45,East,90,0.1,2.0,37,0.00,,,0.00,WSDL version 423,2013-11-30 02:24:00,
2013-11-29 20:29:00,43.1,18.7,30.45,East,90,0.0,2.0,37,0.00,,,0.00,WSDL version 423,2013-11-30 02:29:00,
2013-11-29 20:34:00,43.0,19.0,30.45,East,90,0.0,1.3,38,0.00,,,0.00,WSDL version 423,2013-11-30 02:34:00,
2013-11-29 20:39:00,43.0,19.0,30.45,East,90,0.0,1.3,38,0.00,,,0.00,WSDL version 423,2013-11-30 02:39:00,
2013-11-29 20:44:00,42.8,18.8,30.45,East,90,0.0,1.3,38,0.00,,,0.00,WSDL version 423,2013-11-30 02:44:00,
2013-11-29 20:49:00,42.8,18.8,30.45,East,90,0.0,1.3,38,0.00,,,0.00,WSDL version 423,2013-11-30 02:49:00,
2013-11-29 20:54:00,42.8,19.2,30.45,East,90,0.0,0.9,39,0.00,,,0.00,WSDL version 423,2013-11-30 02:54:00,
2013-11-29 20:59:00,42.6,19.2,30.45,East,90,0.0,1.1,39,0.00,,,0.00,WSDL version 423,2013-11-30 02:59:00,
2013-11-29 21:04:00,42.6,19.2,30.45,East,90,0.0,1.1,39,0.00,,,0.00,WSDL version 423,2013-11-30 03:04:00,
2013-11-29 21:09:00,42.5,19.1,30.45,East,90,0.0,0.0,39,0.00,,,0.00,WSDL version 423,2013-11-30 03:09:00,
2013-11-29 21:14:00,42.4,19.2,30.45,East,90,0.0,0.0,39,0.00,,,0.00,WSDL version 423,2013-11-30 03:14:00,
2013-11-29 21:19:00,42.3,19.4,30.45,East,90,0.0,0.0,40,0.00,,,0.00,WSDL version 423,2013-11-30 03:19:00,
2013-11-29 21:24:00,42.2,19.4,30.45,East,90,0.0,0.0,40,0.00,,,0.00,WSDL version 423,2013-11-30 03:24:00,
2013-11-29 21:29:00,42.1,19.3,30.47,East,90,0.0,0.0,40,0.00,,,0.00,WSDL version 423,2013-11-30 03:29:00,
2013-11-29 21:34:00,41.9,19.5,30.47,East,90,0.0,0.0,41,0.00,,,0.00,WSDL version 423,2013-11-30 03:34:00,
2013-11-29 21:39:00,41.8,19.6,30.47,East,90,0.0,0.0,41,0.00,,,0.00,WSDL version 423,2013-11-30 03:39:00,
2013-11-29 21:44:00,41.4,19.4,30.45,East,90,0.0,0.0,41,0.00,,,0.00,WSDL version 423,2013-11-30 03:44:00,
2013-11-29 21:49:00,41.0,19.4,30.45,East,90,0.0,0.0,41,0.00,,,0.00,WSDL version 423,2013-11-30 03:49:00,
2013-11-29 21:54:00,40.6,19.2,30.45,East,90,0.0,0.0,42,0.00,,,0.00,WSDL version 423,2013-11-30 03:54:00,
2013-11-29 21:59:00,40.3,19.4,30.45,East,90,0.0,0.0,43,0.00,,,0.00,WSDL version 423,2013-11-30 03:59:00,
2013-11-29 22:04:00,39.9,19.7,30.45,East,90,0.0,0.0,44,0.00,,,0.00,WSDL version 423,2013-11-30 04:04:00,
2013-11-29 22:09:00,39.5,19.5,30.45,East,90,0.0,0.0,44,0.00,,,0.00,WSDL version 423,2013-11-30 04:09:00,
2013-11-29 22:14:00,39.3,19.5,30.45,East,90,0.0,0.0,45,0.00,,,0.00,WSDL version 423,2013-11-30 04:14:00,
2013-11-29 22:19:00,39.0,19.5,30.45,East,90,0.0,0.0,45,0.00,,,0.00,WSDL version 423,2013-11-30 04:19:00,
2013-11-29 22:24:00,38.6,19.2,30.45,East,90,0.0,0.0,45,0.00,,,0.00,WSDL version 423,2013-11-30 04:24:00,
2013-11-29 22:29:00,38.3,18.9,30.45,East,90,0.0,0.0,45,0.00,,,0.00,WSDL version 423,2013-11-30 04:29:00,
2013-11-29 22:34:00,38.1,18.7,30.45,East,90,0.0,0.0,45,0.00,,,0.00,WSDL version 423,2013-11-30 04:34:00,
2013-11-29 22:39:00,38.0,18.9,30.45,East,90,0.0,0.0,46,0.00,,,0.00,WSDL version 423,2013-11-30 04:39:00,
2013-11-29 22:49:00,37.9,19.0,30.45,East,90,0.0,0.0,46,0.00,,,0.00,WSDL version 423,2013-11-30 04:49:00,
2013-11-29 22:54:00,38.1,19.1,30.45,East,90,0.0,0.0,46,0.00,,,0.00,WSDL version 423,2013-11-30 04:54:00,
2013-11-29 22:59:00,38.1,19.2,30.45,East,90,0.0,0.0,46,0.00,,,0.00,WSDL version 423,2013-11-30 04:59:00,
2013-11-29 23:04:00,38.1,19.2,30.45,East,90,0.0,0.0,46,0.00,,,0.00,WSDL version 423,2013-11-30 05:04:00,
2013-11-29 23:09:00,38.1,19.2,30.45,East,90,0.0,0.0,46,0.00,,,0.00,WSDL version 423,2013-11-30 05:09:00,
2013-11-29 23:14:00,38.2,19.2,30.45,East,90,0.0,0.0,46,0.00,,,0.00,WSDL version 423,2013-11-30 05:14:00,
2013-11-29 23:19:00,38.3,19.3,30.45,East,90,0.0,0.0,46,0.00,,,0.00,WSDL version 423,2013-11-30 05:19:00,
2013-11-29 23:24:00,38.2,19.4,30.45,East,90,0.0,0.0,46,0.00,,,0.00,WSDL version 423,2013-11-30 05:24:00,
2013-11-29 23:29:00,38.0,19.4,30.45,East,90,0.0,0.0,47,0.00,,,0.00,WSDL version 423,2013-11-30 05:29:00,
2013-11-29 23:34:00,37.7,19.3,30.45,East,90,0.0,0.0,47,0.00,,,0.00,WSDL version 423,2013-11-30 05:34:00,
2013-11-29 23:39:00,37.4,18.9,30.45,East,90,0.0,0.0,47,0.00,,,0.00,WSDL version 423,2013-11-30 05:39:00,
2013-11-29 23:44:00,37.1,18.8,30.45,East,90,0.0,0.0,48,0.00,,,0.00,WSDL version 423,2013-11-30 05:44:00,
2013-11-29 23:49:00,37.1,19.2,30.45,East,90,0.0,0.0,48,0.00,,,0.00,WSDL version 423,2013-11-30 05:49:00,
2013-11-29 23:54:00,37.0,19.1,30.45,East,90,0.0,0.0,48,0.00,,,0.00,WSDL version 423,2013-11-30 05:54:00,
2013-11-29 23:59:00,36.8,18.9,30.42,East,90,0.0,0.0,48,0.00,,,0.00,WSDL version 423,2013-11-30 05:59:00,